Stephenville, Canada
Current Conditions -  °F | °C
As of 6:49 AM on Friday 28 Nov 2014 (Local Time) from CYJT Reporting Station
Broken Clouds Broken Clouds  
Wind Chill: 23°   Ceiling: 2500
Heat Index: 28°   Visibility: 15mi
Dew Point: 23°   Wind: 5mph
Humidity: 80%   Direction: 50°NE
Pressure: 29.83"   Gusts: NA
Location:  48.55°N, 58.58°W
Report Text: CYJT 280949Z 05004KT 15SM BKN025 M02/M05 A2983 RMK SC5 SLP102
Loading
Personal Weather Stations






























Interactive Weather Map New forecast layout! Learn more

10-Day Weather Forecast

Advertisements
Track Severe Weather on mobile